createdAt,value
2023-09-26T00:02:16.375Z,19.95
2023-09-26T00:04:51.363Z,19.92
2023-09-26T00:08:02.095Z,20.00
2023-09-26T00:11:05.954Z,20.04
2023-09-26T00:13:34.830Z,19.98
2023-09-26T00:16:14.611Z,20.01
2023-09-26T00:19:14.886Z,20.10
2023-09-26T00:21:54.960Z,20.09
2023-09-26T00:24:57.285Z,20.03
2023-09-26T00:28:01.071Z,20.08
2023-09-26T00:31:04.396Z,20.12
2023-09-26T00:34:03.292Z,20.13
2023-09-26T00:36:35.146Z,20.15
2023-09-26T00:39:06.088Z,20.17
2023-09-26T00:41:55.728Z,20.20
2023-09-26T00:44:24.196Z,20.23
2023-09-26T00:46:52.973Z,20.25
2023-09-26T00:50:11.949Z,20.20
2023-09-26T00:53:29.405Z,20.14
2023-09-26T00:56:46.588Z,20.11
2023-09-26T00:59:23.752Z,20.06
2023-09-26T01:01:55.653Z,20.08
2023-09-26T01:04:27.167Z,20.03
2023-09-26T01:08:16.561Z,20.01
2023-09-26T01:11:16.553Z,19.90
2023-09-26T01:14:23.643Z,19.85
2023-09-26T01:17:01.764Z,19.84
2023-09-26T01:19:50.484Z,19.87
2023-09-26T01:23:01.935Z,19.78
2023-09-26T01:25:36.197Z,19.52
2023-09-26T01:28:09.369Z,19.49
2023-09-26T01:30:44.702Z,19.42
2023-09-26T01:34:05.058Z,19.41
2023-09-26T01:36:53.844Z,19.22
2023-09-26T01:39:37.493Z,18.99
2023-09-26T01:42:08.297Z,18.93
2023-09-26T01:44:37.103Z,18.91
2023-09-26T01:47:36.274Z,18.92
2023-09-26T01:50:28.153Z,18.86
2023-09-26T01:53:02.424Z,18.86
2023-09-26T01:55:50.256Z,18.85
2023-09-26T01:58:33.474Z,18.80
2023-09-26T02:01:10.188Z,18.75
2023-09-26T02:04:17.576Z,18.72
2023-09-26T02:06:59.283Z,18.73
2023-09-26T02:09:30.433Z,18.75
2023-09-26T02:12:08.476Z,18.71
2023-09-26T02:14:53.402Z,18.70
2023-09-26T02:17:24.588Z,18.72
2023-09-26T02:19:53.694Z,18.72
2023-09-26T02:22:25.188Z,18.66
2023-09-26T02:25:13.780Z,18.50
2023-09-26T02:27:53.054Z,18.30
2023-09-26T02:30:24.956Z,18.19
2023-09-26T02:33:04.921Z,18.11
2023-09-26T02:35:45.086Z,18.10
2023-09-26T02:38:27.527Z,18.05
2023-09-26T02:41:01.321Z,17.98
2023-09-26T02:43:59.915Z,17.96
2023-09-26T02:47:10.514Z,17.99
2023-09-26T02:50:00.322Z,17.95
2023-09-26T02:52:31.957Z,17.92
2023-09-26T02:55:33.091Z,17.86
2023-09-26T02:58:11.750Z,17.67
2023-09-26T03:01:02.206Z,17.53
2023-09-26T03:03:39.270Z,17.52
2023-09-26T03:06:11.457Z,17.41
2023-09-26T03:08:48.578Z,17.37
2023-09-26T03:11:16.826Z,17.42
2023-09-26T03:13:45.726Z,17.47
2023-09-26T03:16:25.771Z,17.49
2023-09-26T03:18:56.033Z,17.49
2023-09-26T03:21:30.828Z,17.49
2023-09-26T03:24:02.511Z,17.42
2023-09-26T03:26:31.900Z,17.37
2023-09-26T03:29:02.657Z,17.36
2023-09-26T03:31:31.946Z,17.34
2023-09-26T03:34:00.692Z,17.32
2023-09-26T03:36:29.379Z,17.28
2023-09-26T03:38:57.768Z,17.24
2023-09-26T03:41:26.293Z,17.17
2023-09-26T03:44:08.380Z,17.16
2023-09-26T03:46:37.144Z,17.17
2023-09-26T03:49:05.999Z,17.18
2023-09-26T03:51:37.331Z,17.24
2023-09-26T03:54:06.124Z,17.23
2023-09-26T03:56:34.932Z,17.17
2023-09-26T03:59:05.976Z,17.00
2023-09-26T04:01:34.759Z,16.88
2023-09-26T04:04:04.044Z,16.92
2023-09-26T04:06:33.815Z,16.94
2023-09-26T04:09:11.578Z,16.92
2023-09-26T04:11:40.161Z,16.96
2023-09-26T04:14:14.512Z,17.02
2023-09-26T04:16:45.330Z,17.09
2023-09-26T04:19:24.120Z,17.04
2023-09-26T04:21:55.802Z,17.02
2023-09-26T04:24:25.081Z,17.01
2023-09-26T04:26:53.539Z,17.01
2023-09-26T04:29:22.134Z,16.99
2023-09-26T04:31:50.746Z,17.00
2023-09-26T04:39:56.473Z,17.08
2023-09-26T04:42:45.250Z,16.99
2023-09-26T04:45:34.586Z,16.98
2023-09-26T04:48:12.840Z,16.98
2023-09-26T04:50:56.595Z,17.03
2023-09-26T04:53:25.327Z,17.02
2023-09-26T04:55:56.599Z,17.04
2023-09-26T04:58:25.494Z,17.12
2023-09-26T05:01:03.014Z,17.17
2023-09-26T05:03:44.908Z,17.23
2023-09-26T05:06:31.998Z,17.23
2023-09-26T05:09:03.164Z,17.24
2023-09-26T05:11:31.669Z,17.31
2023-09-26T05:14:20.726Z,17.37
2023-09-26T05:16:51.063Z,17.41
2023-09-26T05:19:19.825Z,17.48
2023-09-26T05:21:51.736Z,17.56
2023-09-26T05:24:23.717Z,17.63
2023-09-26T05:26:54.693Z,17.65
2023-09-26T05:29:36.428Z,17.64
2023-09-26T05:32:07.362Z,17.70
2023-09-26T05:34:36.949Z,17.77
2023-09-26T05:37:10.902Z,17.76
2023-09-26T05:39:43.478Z,17.81
2023-09-26T05:42:22.458Z,17.84
2023-09-26T05:44:53.806Z,17.91
2023-09-26T05:47:40.909Z,17.96
2023-09-26T05:50:10.482Z,18.00
2023-09-26T05:52:44.280Z,18.09
2023-09-26T05:55:16.271Z,18.20
2023-09-26T05:58:05.399Z,18.32
2023-09-26T06:00:40.468Z,18.47
2023-09-26T06:03:19.882Z,18.63
2023-09-26T06:05:49.004Z,18.69
2023-09-26T06:08:17.531Z,18.72
2023-09-26T06:11:03.519Z,18.81
2023-09-26T06:13:39.319Z,18.94
2023-09-26T06:16:11.346Z,19.15
2023-09-26T06:18:42.888Z,19.19
2023-09-26T06:21:14.428Z,19.35
2023-09-26T06:23:43.397Z,19.43
2023-09-26T06:26:11.952Z,19.60
2023-09-26T06:28:45.582Z,19.63
2023-09-26T06:31:18.609Z,19.74
2023-09-26T06:34:10.456Z,19.89
2023-09-26T06:36:52.665Z,19.97
2023-09-26T06:39:25.679Z,20.05
2023-09-26T06:42:00.875Z,20.04
2023-09-26T06:44:30.530Z,20.16
2023-09-26T06:46:59.356Z,20.22
2023-09-26T06:49:37.418Z,20.16
2023-09-26T06:52:15.399Z,20.24
2023-09-26T06:55:22.528Z,20.55
2023-09-26T06:58:00.979Z,20.84
2023-09-26T07:00:41.627Z,21.38
2023-09-26T07:03:49.359Z,21.84
2023-09-26T07:06:39.174Z,22.36
2023-09-26T07:09:40.150Z,22.79
2023-09-26T07:12:43.484Z,23.00
2023-09-26T07:16:04.945Z,23.00
2023-09-26T07:19:15.344Z,23.17
2023-09-26T07:22:28.415Z,23.21
2023-09-26T07:25:38.204Z,23.42
2023-09-26T07:28:39.381Z,23.49
2023-09-26T07:31:59.385Z,23.61
2023-09-26T07:34:48.400Z,23.75
2023-09-26T07:37:32.497Z,24.04
2023-09-26T07:40:07.228Z,24.29
2023-09-26T07:42:41.846Z,24.67
2023-09-26T07:45:23.619Z,25.06
2023-09-26T07:47:57.516Z,25.36
2023-09-26T07:50:36.981Z,25.72
2023-09-26T07:53:11.637Z,25.75
2023-09-26T07:55:52.934Z,25.60
2023-09-26T07:58:27.669Z,25.79
2023-09-26T08:01:09.845Z,25.82
2023-09-26T08:04:10.097Z,25.26
2023-09-26T08:06:46.601Z,25.56
2023-09-26T08:09:46.235Z,25.77
2023-09-26T08:12:25.018Z,26.08
2023-09-26T08:15:54.110Z,26.03
2023-09-26T08:18:34.089Z,26.46
2023-09-26T08:21:59.192Z,26.21
2023-09-26T08:25:35.232Z,26.69
2023-09-26T08:29:05.386Z,26.42
2023-09-26T08:32:44.736Z,26.62
2023-09-26T08:36:25.073Z,26.77
2023-09-26T08:39:48.356Z,26.79
2023-09-26T08:43:29.359Z,27.01
2023-09-26T08:46:44.174Z,26.80
2023-09-26T08:49:16.317Z,26.91
2023-09-26T08:51:47.961Z,27.52
2023-09-26T08:54:16.767Z,27.42
2023-09-26T08:56:53.913Z,27.59
2023-09-26T08:59:25.732Z,27.94
2023-09-26T09:02:22.233Z,28.14
2023-09-26T09:05:49.554Z,27.90
2023-09-26T09:09:21.698Z,27.85
2023-09-26T09:13:01.985Z,27.47
2023-09-26T09:16:28.254Z,27.52
2023-09-26T09:19:17.962Z,27.55
2023-09-26T09:22:35.960Z,27.57
2023-09-26T09:25:05.698Z,27.49
2023-09-26T09:27:36.687Z,27.37
2023-09-26T09:30:20.557Z,27.23
2023-09-26T09:32:52.328Z,27.32
2023-09-26T09:35:23.574Z,27.35
2023-09-26T09:37:54.519Z,27.58
2023-09-26T09:40:25.433Z,27.50
2023-09-26T09:42:54.360Z,27.37
2023-09-26T09:45:30.806Z,27.62
2023-09-26T09:48:04.649Z,28.07
2023-09-26T09:50:40.035Z,28.30
2023-09-26T09:53:23.529Z,28.22
2023-09-26T09:56:26.745Z,27.71
2023-09-26T09:59:23.537Z,28.12
2023-09-26T10:01:57.120Z,28.65
2023-09-26T10:04:33.104Z,28.69
2023-09-26T10:07:08.977Z,28.86
2023-09-26T10:09:41.547Z,28.80
2023-09-26T10:12:18.536Z,29.47
2023-09-26T10:15:17.869Z,28.79
2023-09-26T10:18:34.288Z,28.98
2023-09-26T10:21:04.059Z,29.79
2023-09-26T10:24:23.458Z,29.85
2023-09-26T10:27:58.624Z,29.69
2023-09-26T10:31:38.299Z,30.09
2023-09-26T10:35:27.112Z,29.33
2023-09-26T10:39:09.120Z,29.80
2023-09-26T10:46:11.328Z,30.17
2023-09-26T10:53:55.049Z,30.89
2023-09-26T10:57:06.518Z,30.34
2023-09-26T11:00:35.691Z,30.15
2023-09-26T11:03:47.554Z,30.79
2023-09-26T11:06:39.476Z,31.43
2023-09-26T11:09:13.576Z,30.81
2023-09-26T11:11:45.963Z,30.72
2023-09-26T11:14:34.958Z,29.69
2023-09-26T11:17:30.080Z,29.90
2023-09-26T11:20:01.686Z,31.47
2023-09-26T11:23:13.186Z,31.83
2023-09-26T11:26:06.627Z,30.27
2023-09-26T11:28:49.950Z,31.22
2023-09-26T11:32:28.730Z,30.87
2023-09-26T11:36:00.782Z,31.74
2023-09-26T11:39:47.620Z,32.17
2023-09-26T11:42:21.975Z,31.31
2023-09-26T11:45:42.542Z,31.43
2023-09-26T11:49:31.959Z,31.85
2023-09-26T11:53:05.547Z,30.06
2023-09-26T11:56:46.792Z,29.72
2023-09-26T12:00:09.099Z,30.55
2023-09-26T12:03:25.978Z,31.21
2023-09-26T12:07:15.237Z,32.03
2023-09-26T12:11:04.778Z,31.77
2023-09-26T12:14:57.753Z,32.55
2023-09-26T12:18:47.657Z,32.89
2023-09-26T12:22:40.622Z,33.08
2023-09-26T12:26:23.253Z,33.11
2023-09-26T12:30:05.015Z,32.74
2023-09-26T12:33:54.742Z,32.72
2023-09-26T12:37:46.503Z,32.32
2023-09-26T12:41:37.570Z,32.15
2023-09-26T12:45:26.900Z,32.47
2023-09-26T12:49:17.242Z,32.68
2023-09-26T12:53:07.230Z,33.08
2023-09-26T12:56:46.948Z,32.62
2023-09-26T13:00:38.245Z,32.86
2023-09-26T13:04:28.765Z,33.33
2023-09-26T13:08:18.376Z,33.22
2023-09-26T13:12:07.788Z,33.31
2023-09-26T13:15:57.043Z,32.37
2023-09-26T13:19:47.025Z,32.36
2023-09-26T13:23:27.122Z,30.42
2023-09-26T13:27:09.772Z,30.79
2023-09-26T13:31:00.278Z,31.68
2023-09-26T13:34:50.675Z,32.38
2023-09-26T13:38:41.228Z,32.72
2023-09-26T13:42:30.617Z,31.63
2023-09-26T13:46:21.371Z,31.15
2023-09-26T13:49:53.839Z,30.36
2023-09-26T13:53:45.712Z,30.83
2023-09-26T13:57:17.720Z,31.13
2023-09-26T14:01:08.597Z,31.43
2023-09-26T14:05:03.379Z,31.81
2023-09-26T14:08:41.678Z,31.72
2023-09-26T14:12:29.830Z,32.28
2023-09-26T14:16:08.437Z,31.73
2023-09-26T14:19:58.958Z,30.90
2023-09-26T14:23:41.658Z,31.87
2023-09-26T14:27:31.769Z,31.16
2023-09-26T14:31:22.633Z,31.48
2023-09-26T14:35:12.734Z,30.31
2023-09-26T14:39:02.504Z,31.33
2023-09-26T14:42:54.447Z,32.04
2023-09-26T14:46:45.711Z,32.11
2023-09-26T14:50:36.430Z,32.01
2023-09-26T14:54:26.506Z,32.17
2023-09-26T14:58:18.273Z,31.61
2023-09-26T15:02:11.366Z,31.53
2023-09-26T15:06:01.970Z,31.79
2023-09-26T15:09:51.775Z,31.80
2023-09-26T15:13:41.726Z,31.46
2023-09-26T15:17:31.184Z,31.22
2023-09-26T15:21:28.394Z,31.16
2023-09-26T15:25:18.005Z,31.18
2023-09-26T15:29:01.473Z,30.69
2023-09-26T15:32:53.875Z,30.77
2023-09-26T15:36:42.778Z,30.59
2023-09-26T15:40:22.029Z,30.18
2023-09-26T15:44:10.470Z,30.17
2023-09-26T15:48:02.031Z,29.87
2023-09-26T15:51:53.886Z,29.85
2023-09-26T15:55:44.042Z,29.51
2023-09-26T15:59:33.343Z,29.22
2023-09-26T16:08:02.576Z,28.68
2023-09-26T16:10:51.697Z,28.42
2023-09-26T16:13:24.056Z,28.09
2023-09-26T16:15:52.958Z,27.94
2023-09-26T16:19:03.688Z,27.68
2023-09-26T16:21:35.569Z,27.49
2023-09-26T16:24:04.606Z,27.24
2023-09-26T16:26:53.333Z,27.02
2023-09-26T16:29:31.318Z,26.80
2023-09-26T16:32:00.207Z,26.62
2023-09-26T16:34:29.035Z,26.48
2023-09-26T16:37:17.905Z,26.26
2023-09-26T16:39:56.177Z,26.09
2023-09-26T16:42:28.022Z,25.93
2023-09-26T16:44:58.973Z,25.84
2023-09-26T16:47:29.212Z,25.63
2023-09-26T16:50:32.331Z,25.48
2023-09-26T16:53:34.599Z,25.39
2023-09-26T16:56:16.431Z,25.24
2023-09-26T16:58:58.863Z,25.14
2023-09-26T17:02:17.944Z,24.99
2023-09-26T17:05:32.286Z,24.67
2023-09-26T17:08:28.829Z,24.47
2023-09-26T17:11:17.832Z,24.40
2023-09-26T17:14:17.017Z,24.32
2023-09-26T17:17:02.221Z,24.08
2023-09-26T17:19:57.427Z,23.85
2023-09-26T17:22:55.604Z,23.62
2023-09-26T17:25:54.198Z,23.39
2023-09-26T17:28:26.443Z,23.23
2023-09-26T17:31:01.683Z,23.06
2023-09-26T17:33:31.985Z,22.95
2023-09-26T17:36:12.855Z,22.79
2023-09-26T17:38:47.210Z,22.61
2023-09-26T17:41:26.693Z,22.39
2023-09-26T17:44:06.567Z,22.24
2023-09-26T17:46:52.895Z,22.04
2023-09-26T17:49:35.402Z,21.93
2023-09-26T17:52:15.548Z,21.83
2023-09-26T17:55:12.685Z,21.78
2023-09-26T17:57:52.250Z,21.80
2023-09-26T18:00:26.183Z,21.70
2023-09-26T18:03:06.453Z,21.63
2023-09-26T18:05:40.713Z,21.61
2023-09-26T18:08:15.250Z,21.72
2023-09-26T18:10:53.169Z,21.74
2023-09-26T18:14:01.269Z,21.74
2023-09-26T18:16:32.844Z,21.70
2023-09-26T18:19:04.334Z,21.76
2023-09-26T18:28:55.219Z,21.70
2023-09-26T18:31:25.590Z,21.63
2023-09-26T18:33:59.136Z,21.72
2023-09-26T18:36:30.388Z,21.73
2023-09-26T18:39:21.213Z,21.58
2023-09-26T18:42:10.273Z,21.53
2023-09-26T18:45:14.548Z,21.51
2023-09-26T18:47:49.589Z,21.52
2023-09-26T18:50:48.104Z,21.52
2023-09-26T18:53:36.503Z,21.57
2023-09-26T18:56:10.391Z,21.64
2023-09-26T18:58:56.705Z,21.69
2023-09-26T19:01:33.239Z,21.69
2023-09-26T19:04:03.114Z,21.67
2023-09-26T19:06:35.103Z,21.69
2023-09-26T19:09:26.563Z,21.76
2023-09-26T19:12:16.630Z,21.67
2023-09-26T19:14:58.042Z,21.75
2023-09-26T19:17:27.103Z,21.84
2023-09-26T19:20:06.396Z,21.81
2023-09-26T19:22:37.514Z,21.78
2023-09-26T19:25:07.199Z,21.76
2023-09-26T19:27:46.326Z,21.72
2023-09-26T19:30:47.601Z,21.66
2023-09-26T19:33:25.322Z,21.63
2023-09-26T19:35:57.224Z,21.64
2023-09-26T19:38:58.818Z,21.62
2023-09-26T19:42:02.062Z,21.58
2023-09-26T19:45:01.862Z,21.53
2023-09-26T19:48:00.878Z,21.43
2023-09-26T19:50:54.255Z,21.38
2023-09-26T19:53:30.735Z,21.31
2023-09-26T19:56:07.110Z,21.20
2023-09-26T19:58:42.117Z,21.15
2023-09-26T20:01:35.852Z,21.14
2023-09-26T20:04:07.796Z,21.10
2023-09-26T20:06:36.566Z,21.17
2023-09-26T20:09:10.902Z,21.16
2023-09-26T20:11:42.821Z,21.09
2023-09-26T20:14:18.332Z,21.02
2023-09-26T20:17:14.264Z,20.99
2023-09-26T20:20:09.049Z,20.85
2023-09-26T20:22:41.092Z,20.78
2023-09-26T20:25:12.641Z,20.76
2023-09-26T20:27:41.376Z,20.73
2023-09-26T20:30:14.248Z,20.72
2023-09-26T20:32:43.207Z,20.71
2023-09-26T20:35:29.955Z,20.64
2023-09-26T20:38:09.360Z,20.60
2023-09-26T20:40:37.949Z,20.62
2023-09-26T20:43:09.575Z,20.58
2023-09-26T20:45:43.463Z,20.54
2023-09-26T20:48:12.377Z,20.37
2023-09-26T20:50:46.226Z,20.30
2023-09-26T20:53:28.918Z,20.23
2023-09-26T20:56:07.434Z,20.15
2023-09-26T20:58:48.391Z,20.11
2023-09-26T21:01:18.444Z,20.06
2023-09-26T21:03:47.664Z,20.04
2023-09-26T21:06:53.205Z,20.00
2023-09-26T21:10:35.178Z,19.91
2023-09-26T21:13:57.806Z,19.69
2023-09-26T21:17:20.207Z,19.54
2023-09-26T21:21:02.361Z,19.48
2023-09-26T21:24:51.848Z,19.32
2023-09-26T21:27:41.726Z,19.24
2023-09-26T21:30:11.049Z,19.23
2023-09-26T21:32:39.854Z,19.23
2023-09-26T21:35:09.323Z,19.19
2023-09-26T21:37:46.740Z,19.17
2023-09-26T21:40:56.248Z,19.11
2023-09-26T21:43:30.646Z,19.03
2023-09-26T21:46:21.803Z,19.02
2023-09-26T21:48:55.834Z,19.01
2023-09-26T21:52:11.765Z,18.91
2023-09-26T21:54:40.573Z,18.91
2023-09-26T21:57:12.863Z,18.90
2023-09-26T21:59:46.949Z,18.85
2023-09-26T22:03:01.776Z,18.85
2023-09-26T22:05:32.123Z,18.81
2023-09-26T22:08:08.656Z,18.82
2023-09-26T22:10:41.248Z,18.82
2023-09-26T22:13:24.044Z,18.73
2023-09-26T22:16:15.531Z,18.62
2023-09-26T22:18:44.621Z,18.61
2023-09-26T22:21:14.007Z,18.59
2023-09-26T22:23:44.834Z,18.61
2023-09-26T22:26:19.517Z,18.54
2023-09-26T22:29:46.643Z,18.53
2023-09-26T22:32:22.738Z,18.47
2023-09-26T22:34:55.798Z,18.42
2023-09-26T22:37:41.925Z,18.42
2023-09-26T22:41:21.398Z,18.32
2023-09-26T22:45:09.030Z,18.27
2023-09-26T22:48:33.411Z,18.20
2023-09-26T22:51:34.046Z,18.18
2023-09-26T22:54:18.317Z,18.18
2023-09-26T22:56:52.476Z,18.24
2023-09-26T22:59:26.932Z,18.23
2023-09-26T23:03:16.560Z,18.29
2023-09-26T23:06:08.914Z,18.35
2023-09-26T23:08:45.994Z,18.41
2023-09-26T23:12:03.342Z,18.48
2023-09-26T23:15:22.637Z,18.44
2023-09-26T23:18:36.330Z,18.46
2023-09-26T23:21:24.172Z,18.44
2023-09-26T23:24:36.994Z,18.43
2023-09-26T23:27:42.542Z,18.48
2023-09-26T23:31:13.709Z,18.54
2023-09-26T23:34:31.115Z,18.47
2023-09-26T23:37:07.886Z,18.47
2023-09-26T23:40:11.309Z,18.50
2023-09-26T23:43:27.407Z,18.48
2023-09-26T23:47:07.446Z,18.43
2023-09-26T23:50:56.895Z,18.28
2023-09-26T23:53:42.117Z,18.20
2023-09-26T23:56:12.981Z,18.23
2023-09-26T23:58:41.856Z,18.26
